createdAt,value
2019-01-21T08:51:28.166Z,41.77
2019-01-21T08:54:06.336Z,42.07
2019-01-21T08:57:04.938Z,47.27
2019-01-21T09:00:12.692Z,48.67
2019-01-21T09:03:51.336Z,51.43
2019-01-21T09:06:35.887Z,47.20
2019-01-21T09:09:14.917Z,47.70
2019-01-21T09:11:57.699Z,52.07
2019-01-21T09:14:59.665Z,47.30
2019-01-21T09:17:42.401Z,50.77
2019-01-21T09:20:29.186Z,47.30
2019-01-21T09:24:15.792Z,48.87
2019-01-21T09:28:58.533Z,49.87
2019-01-21T09:31:49.339Z,56.37
2019-01-21T09:36:34.262Z,51.40
2019-01-21T09:40:21.028Z,51.87
2019-01-21T09:43:05.272Z,45.43
2019-01-21T09:46:44.353Z,45.03
2019-01-21T09:49:12.467Z,45.30
2019-01-21T09:51:45.628Z,45.17
2019-01-21T09:54:14.884Z,46.80
2019-01-21T09:56:43.888Z,47.77
2019-01-21T09:59:13.095Z,46.23
2019-01-21T10:01:42.189Z,43.77
2019-01-21T10:04:11.255Z,47.80
2019-01-21T10:06:47.121Z,51.13
2019-01-21T10:09:35.617Z,47.43
2019-01-21T10:12:18.375Z,55.27
2019-01-21T10:14:58.477Z,48.10
2019-01-21T10:18:39.225Z,55.87
2019-01-21T10:21:31.747Z,50.23
2019-01-21T10:24:11.142Z,51.20
2019-01-21T10:26:50.983Z,51.63
2019-01-21T10:29:35.363Z,55.37
2019-01-21T10:32:15.985Z,51.23
2019-01-21T10:35:01.289Z,60.43
2019-01-21T10:37:44.508Z,53.63
2019-01-21T10:40:28.467Z,49.57
2019-01-21T10:44:09.192Z,54.43
2019-01-21T10:47:56.687Z,53.70
2019-01-21T10:50:36.152Z,52.77
2019-01-21T10:53:17.539Z,48.80
2019-01-21T10:55:57.730Z,53.20
2019-01-21T10:58:41.695Z,55.17
2019-01-21T11:01:32.388Z,52.67
2019-01-21T11:04:13.579Z,53.00
2019-01-21T11:06:59.544Z,52.93
2019-01-21T11:09:41.282Z,55.23
2019-01-21T11:12:21.307Z,54.43
2019-01-21T11:15:01.870Z,59.03
2019-01-21T11:17:42.683Z,46.43
2019-01-21T11:21:21.642Z,58.27
2019-01-21T11:24:23.395Z,56.57
2019-01-21T11:27:00.507Z,57.47
2019-01-21T11:29:57.197Z,57.53
2019-01-21T11:32:44.422Z,55.33
2019-01-21T11:35:28.507Z,52.10
2019-01-21T11:38:18.444Z,55.23
2019-01-21T11:41:00.281Z,48.97
2019-01-21T11:45:46.250Z,50.03
2019-01-21T11:49:25.761Z,54.47
2019-01-21T11:52:07.228Z,53.10
2019-01-21T11:54:48.759Z,48.27
2019-01-21T11:57:39.611Z,41.13
2019-01-21T12:00:23.162Z,47.57
2019-01-21T12:03:02.004Z,46.40
2019-01-21T12:05:39.019Z,45.20
2019-01-21T12:08:24.204Z,45.57
2019-01-21T12:11:05.981Z,44.83
2019-01-21T12:13:43.485Z,44.77
2019-01-21T12:18:20.290Z,44.57
2019-01-21T12:21:11.635Z,45.43
2019-01-21T12:23:58.337Z,41.43
2019-01-21T12:26:43.809Z,43.93
2019-01-21T12:31:33.197Z,45.50
2019-01-21T12:34:11.501Z,40.97
2019-01-21T12:36:50.805Z,42.93
2019-01-21T12:39:35.321Z,42.43
2019-01-21T12:42:19.648Z,41.97
2019-01-21T12:45:03.065Z,43.73
2019-01-21T12:47:40.315Z,42.20
2019-01-21T12:50:30.480Z,44.53
2019-01-21T12:53:11.011Z,41.30
2019-01-21T12:56:26.577Z,44.23
2019-01-21T12:59:05.271Z,44.37
2019-01-21T13:01:43.276Z,42.90
2019-01-21T13:04:27.372Z,46.70
2019-01-21T13:07:05.055Z,43.50
2019-01-21T13:09:47.092Z,46.67
2019-01-21T13:12:27.957Z,42.33
2019-01-21T13:15:11.064Z,45.17
2019-01-21T13:17:55.503Z,44.70
2019-01-21T13:20:38.342Z,41.40
2019-01-21T13:23:26.817Z,41.83
2019-01-21T13:26:11.132Z,44.67
2019-01-21T13:31:25.923Z,43.87
2019-01-21T13:34:36.891Z,47.97
2019-01-21T13:37:20.729Z,45.90
2019-01-21T13:42:03.456Z,50.53
2019-01-21T13:45:12.619Z,50.37
2019-01-21T13:47:51.681Z,46.70
2019-01-21T13:50:27.565Z,47.57
2019-01-21T13:54:07.387Z,46.17
2019-01-21T13:56:53.813Z,49.23
2019-01-21T13:59:47.047Z,48.27
2019-01-21T14:02:29.535Z,48.07
2019-01-21T14:05:32.622Z,44.10
2019-01-21T14:08:21.644Z,40.80
2019-01-21T14:11:08.879Z,43.27
2019-01-21T14:13:51.862Z,56.13
2019-01-21T14:17:07.648Z,61.37
2019-01-21T14:19:48.168Z,48.13
2019-01-21T14:50:36.801Z,40.30
2019-01-21T14:53:20.016Z,37.43
2019-01-21T14:56:02.435Z,45.53
2019-01-21T15:04:24.106Z,49.53
2019-01-21T15:07:09.114Z,40.97
2019-01-21T15:09:57.364Z,42.50
2019-01-21T15:12:59.064Z,42.80
2019-01-21T15:16:07.720Z,37.37
2019-01-21T15:18:59.723Z,47.43
2019-01-21T15:21:47.692Z,40.83
2019-01-21T15:24:36.287Z,43.07
2019-01-21T15:29:40.100Z,44.10
2019-01-21T15:36:28.240Z,44.23
2019-01-21T15:39:17.042Z,46.40
2019-01-21T15:44:01.086Z,49.80
2019-01-21T15:46:46.665Z,49.53
2019-01-21T15:49:25.050Z,50.43
2019-01-21T15:54:09.777Z,49.60
2019-01-21T15:56:52.289Z,52.53
2019-01-21T15:59:52.633Z,45.53
2019-01-21T16:04:52.732Z,45.77
2019-01-21T16:07:30.297Z,51.10
2019-01-21T16:10:46.182Z,51.20
2019-01-21T16:13:27.799Z,49.73
2019-01-21T16:18:10.555Z,50.33
2019-01-21T16:21:02.431Z,53.53
2019-01-21T16:24:30.409Z,51.37
2019-01-21T16:27:07.395Z,54.53
2019-01-21T16:29:43.864Z,52.60
2019-01-21T16:32:57.044Z,55.13
2019-01-21T16:35:41.986Z,50.07
2019-01-21T16:38:34.416Z,52.27
2019-01-21T16:41:13.750Z,52.70
2019-01-21T16:43:43.326Z,51.77
2019-01-21T16:46:12.839Z,56.13
2019-01-21T16:48:42.401Z,57.23
2019-01-21T16:51:12.096Z,52.53
2019-01-21T16:53:41.582Z,53.33
2019-01-21T16:56:11.442Z,54.77
2019-01-21T16:58:41.015Z,53.60
2019-01-21T17:01:13.046Z,59.10
2019-01-21T17:06:23.947Z,58.20
2019-01-21T17:08:55.837Z,66.57
2019-01-21T17:11:26.608Z,74.83
2019-01-21T17:13:57.108Z,62.90
2019-01-21T17:16:27.942Z,64.07
2019-01-21T17:19:00.508Z,59.27
2019-01-21T17:21:31.398Z,57.10
2019-01-21T17:24:16.478Z,60.00
2019-01-21T17:26:46.617Z,64.40
2019-01-21T17:35:39.876Z,61.37
2019-01-21T17:38:24.898Z,63.90
2019-01-21T17:41:17.318Z,77.80
2019-01-21T17:43:52.016Z,66.20
